sensor_id;sensor_type;location;lat;lon;timestamp;temperature;humidity
11446;DHT22;5779;64.178;15.432;2023-02-28T00:00:15;4.20;99.90
11446;DHT22;5779;64.178;15.432;2023-02-28T00:03:02;4.20;99.90
11446;DHT22;5779;64.178;15.432;2023-02-28T00:05:49;4.20;99.90
11446;DHT22;5779;64.178;15.432;2023-02-28T00:08:38;4.10;99.90
11446;DHT22;5779;64.178;15.432;2023-02-28T00:11:25;4.30;99.90
11446;DHT22;5779;64.178;15.432;2023-02-28T00:14:12;4.30;99.90
11446;DHT22;5779;64.178;15.432;2023-02-28T00:16:59;4.20;99.90
11446;DHT22;5779;64.178;15.432;2023-02-28T00:19:46;4.20;99.90
11446;DHT22;5779;64.178;15.432;2023-02-28T00:22:32;4.10;99.90
11446;DHT22;5779;64.178;15.432;2023-02-28T00:25:22;4.10;99.90
11446;DHT22;5779;64.178;15.432;2023-02-28T00:28:09;4.10;99.90
11446;DHT22;5779;64.178;15.432;2023-02-28T00:30:56;4.10;99.90
11446;DHT22;5779;64.178;15.432;2023-02-28T00:33:45;4.10;99.90
11446;DHT22;5779;64.178;15.432;2023-02-28T00:36:32;4.00;99.90
11446;DHT22;5779;64.178;15.432;2023-02-28T00:39:18;3.90;99.90
11446;DHT22;5779;64.178;15.432;2023-02-28T00:42:07;3.90;99.90
11446;DHT22;5779;64.178;15.432;2023-02-28T00:44:54;3.90;99.90
11446;DHT22;5779;64.178;15.432;2023-02-28T00:47:41;3.90;99.90
11446;DHT22;5779;64.178;15.432;2023-02-28T00:50:28;3.80;99.90
11446;DHT22;5779;64.178;15.432;2023-02-28T00:53:15;3.70;99.90
11446;DHT22;5779;64.178;15.432;2023-02-28T00:56:03;3.60;99.90
11446;DHT22;5779;64.178;15.432;2023-02-28T00:58:51;3.50;99.90
11446;DHT22;5779;64.178;15.432;2023-02-28T01:01:38;3.50;99.90
11446;DHT22;5779;64.178;15.432;2023-02-28T01:04:26;3.40;99.90
11446;DHT22;5779;64.178;15.432;2023-02-28T01:07:13;3.40;99.90
11446;DHT22;5779;64.178;15.432;2023-02-28T01:10:00;3.30;99.90
11446;DHT22;5779;64.178;15.432;2023-02-28T01:12:48;3.20;99.90
11446;DHT22;5779;64.178;15.432;2023-02-28T01:15:37;3.20;99.90
11446;DHT22;5779;64.178;15.432;2023-02-28T01:18:25;3.10;99.90
11446;DHT22;5779;64.178;15.432;2023-02-28T01:21:13;3.20;99.90
11446;DHT22;5779;64.178;15.432;2023-02-28T01:24:01;3.20;99.90
11446;DHT22;5779;64.178;15.432;2023-02-28T01:26:48;3.20;99.90
11446;DHT22;5779;64.178;15.432;2023-02-28T01:29:34;3.20;99.90
11446;DHT22;5779;64.178;15.432;2023-02-28T01:32:23;3.20;99.90
11446;DHT22;5779;64.178;15.432;2023-02-28T01:35:09;3.30;99.90
11446;DHT22;5779;64.178;15.432;2023-02-28T01:37:56;3.20;99.90
11446;DHT22;5779;64.178;15.432;2023-02-28T01:40:43;3.20;99.90
11446;DHT22;5779;64.178;15.432;2023-02-28T01:43:32;3.20;99.90
11446;DHT22;5779;64.178;15.432;2023-02-28T01:46:19;3.20;99.90
11446;DHT22;5779;64.178;15.432;2023-02-28T01:49:12;3.20;99.90
11446;DHT22;5779;64.178;15.432;2023-02-28T01:52:01;3.10;99.90
11446;DHT22;5779;64.178;15.432;2023-02-28T01:54:51;3.00;99.90
11446;DHT22;5779;64.178;15.432;2023-02-28T01:57:41;2.90;99.90
11446;DHT22;5779;64.178;15.432;2023-02-28T02:00:30;2.80;99.90
11446;DHT22;5779;64.178;15.432;2023-02-28T02:03:18;2.70;99.90
11446;DHT22;5779;64.178;15.432;2023-02-28T02:06:07;2.80;99.90
11446;DHT22;5779;64.178;15.432;2023-02-28T02:08:54;2.80;99.90
11446;DHT22;5779;64.178;15.432;2023-02-28T02:11:43;2.80;99.90
11446;DHT22;5779;64.178;15.432;2023-02-28T02:14:43;2.80;99.90
11446;DHT22;5779;64.178;15.432;2023-02-28T02:17:38;2.70;99.90
11446;DHT22;5779;64.178;15.432;2023-02-28T02:20:52;2.70;99.90
11446;DHT22;5779;64.178;15.432;2023-02-28T02:27:26;2.70;99.90
11446;DHT22;5779;64.178;15.432;2023-02-28T02:30:40;2.60;99.90
11446;DHT22;5779;64.178;15.432;2023-02-28T02:33:58;2.60;99.90
11446;DHT22;5779;64.178;15.432;2023-02-28T02:36:48;2.60;99.90
11446;DHT22;5779;64.178;15.432;2023-02-28T02:39:44;2.70;99.90
11446;DHT22;5779;64.178;15.432;2023-02-28T02:42:39;2.60;99.90
11446;DHT22;5779;64.178;15.432;2023-02-28T02:45:32;2.70;99.90
11446;DHT22;5779;64.178;15.432;2023-02-28T02:48:25;2.80;99.90
11446;DHT22;5779;64.178;15.432;2023-02-28T02:51:16;2.90;99.90
11446;DHT22;5779;64.178;15.432;2023-02-28T02:54:08;2.80;99.90
11446;DHT22;5779;64.178;15.432;2023-02-28T02:57:01;2.80;99.90
11446;DHT22;5779;64.178;15.432;2023-02-28T02:59:50;2.80;99.90
11446;DHT22;5779;64.178;15.432;2023-02-28T03:02:38;2.90;99.90
11446;DHT22;5779;64.178;15.432;2023-02-28T03:05:28;2.90;99.90
11446;DHT22;5779;64.178;15.432;2023-02-28T03:08:18;2.90;99.90
11446;DHT22;5779;64.178;15.432;2023-02-28T03:11:07;2.90;99.90
11446;DHT22;5779;64.178;15.432;2023-02-28T03:14:24;2.90;99.90
11446;DHT22;5779;64.178;15.432;2023-02-28T03:17:31;2.90;99.90
11446;DHT22;5779;64.178;15.432;2023-02-28T03:20:32;2.90;99.90
11446;DHT22;5779;64.178;15.432;2023-02-28T03:23:28;2.90;99.90
11446;DHT22;5779;64.178;15.432;2023-02-28T03:26:21;2.90;99.90
11446;DHT22;5779;64.178;15.432;2023-02-28T03:29:15;2.90;99.90
11446;DHT22;5779;64.178;15.432;2023-02-28T03:32:10;2.90;99.90
11446;DHT22;5779;64.178;15.432;2023-02-28T03:35:04;2.90;99.90
11446;DHT22;5779;64.178;15.432;2023-02-28T03:38:00;2.80;99.90
11446;DHT22;5779;64.178;15.432;2023-02-28T03:40:55;2.80;99.90
11446;DHT22;5779;64.178;15.432;2023-02-28T03:43:49;2.80;99.90
11446;DHT22;5779;64.178;15.432;2023-02-28T03:46:39;2.80;99.90
11446;DHT22;5779;64.178;15.432;2023-02-28T03:49:31;2.70;99.90
11446;DHT22;5779;64.178;15.432;2023-02-28T03:52:21;2.70;99.90
11446;DHT22;5779;64.178;15.432;2023-02-28T03:55:12;2.70;99.90
11446;DHT22;5779;64.178;15.432;2023-02-28T03:58:07;2.60;99.90
11446;DHT22;5779;64.178;15.432;2023-02-28T04:01:01;2.60;99.90
11446;DHT22;5779;64.178;15.432;2023-02-28T04:03:53;2.50;99.90
11446;DHT22;5779;64.178;15.432;2023-02-28T04:06:41;2.40;99.90
11446;DHT22;5779;64.178;15.432;2023-02-28T04:09:28;2.30;99.90
11446;DHT22;5779;64.178;15.432;2023-02-28T04:12:14;2.20;99.90
11446;DHT22;5779;64.178;15.432;2023-02-28T04:15:03;2.20;99.90
11446;DHT22;5779;64.178;15.432;2023-02-28T04:17:51;2.20;99.90
11446;DHT22;5779;64.178;15.432;2023-02-28T04:20:38;2.20;99.90
11446;DHT22;5779;64.178;15.432;2023-02-28T04:23:24;2.30;99.90
11446;DHT22;5779;64.178;15.432;2023-02-28T04:26:11;2.30;99.90
11446;DHT22;5779;64.178;15.432;2023-02-28T04:28:58;2.30;99.90
11446;DHT22;5779;64.178;15.432;2023-02-28T04:31:46;2.30;99.90
11446;DHT22;5779;64.178;15.432;2023-02-28T04:34:33;2.30;99.90
11446;DHT22;5779;64.178;15.432;2023-02-28T04:37:20;2.30;99.90
11446;DHT22;5779;64.178;15.432;2023-02-28T04:40:13;2.40;99.90
11446;DHT22;5779;64.178;15.432;2023-02-28T04:43:00;2.30;99.90
11446;DHT22;5779;64.178;15.432;2023-02-28T04:45:48;2.40;99.90
11446;DHT22;5779;64.178;15.432;2023-02-28T04:48:37;2.40;99.90
11446;DHT22;5779;64.178;15.432;2023-02-28T04:51:25;2.40;99.90
11446;DHT22;5779;64.178;15.432;2023-02-28T04:54:12;2.40;99.90
11446;DHT22;5779;64.178;15.432;2023-02-28T04:57:01;2.50;99.90
11446;DHT22;5779;64.178;15.432;2023-02-28T04:59:49;2.40;99.90
11446;DHT22;5779;64.178;15.432;2023-02-28T05:02:36;2.40;99.90
11446;DHT22;5779;64.178;15.432;2023-02-28T05:05:24;2.50;99.90
11446;DHT22;5779;64.178;15.432;2023-02-28T05:08:11;2.50;99.90
11446;DHT22;5779;64.178;15.432;2023-02-28T05:10:58;2.40;99.90
11446;DHT22;5779;64.178;15.432;2023-02-28T05:13:46;2.40;99.90
11446;DHT22;5779;64.178;15.432;2023-02-28T05:16:33;2.40;99.90
11446;DHT22;5779;64.178;15.432;2023-02-28T05:19:20;2.40;99.90
11446;DHT22;5779;64.178;15.432;2023-02-28T05:22:13;2.30;99.90
11446;DHT22;5779;64.178;15.432;2023-02-28T05:25:01;2.30;99.90
11446;DHT22;5779;64.178;15.432;2023-02-28T05:27:48;2.30;99.90
11446;DHT22;5779;64.178;15.432;2023-02-28T05:30:36;2.30;99.90
11446;DHT22;5779;64.178;15.432;2023-02-28T05:33:23;2.30;99.90
11446;DHT22;5779;64.178;15.432;2023-02-28T05:36:10;2.30;99.90
11446;DHT22;5779;64.178;15.432;2023-02-28T05:38:58;2.30;99.90
11446;DHT22;5779;64.178;15.432;2023-02-28T05:41:45;2.30;99.90
11446;DHT22;5779;64.178;15.432;2023-02-28T05:44:31;2.30;99.90
11446;DHT22;5779;64.178;15.432;2023-02-28T05:47:18;2.30;99.90
11446;DHT22;5779;64.178;15.432;2023-02-28T05:50:06;2.30;99.90
11446;DHT22;5779;64.178;15.432;2023-02-28T05:52:54;2.30;99.90
11446;DHT22;5779;64.178;15.432;2023-02-28T05:55:42;2.30;99.90
11446;DHT22;5779;64.178;15.432;2023-02-28T05:58:29;2.30;99.90
11446;DHT22;5779;64.178;15.432;2023-02-28T06:01:22;2.30;99.90
11446;DHT22;5779;64.178;15.432;2023-02-28T06:04:10;2.30;99.90
11446;DHT22;5779;64.178;15.432;2023-02-28T06:06:59;2.30;99.90
11446;DHT22;5779;64.178;15.432;2023-02-28T06:09:46;2.30;99.90
11446;DHT22;5779;64.178;15.432;2023-02-28T06:12:34;2.30;99.90
11446;DHT22;5779;64.178;15.432;2023-02-28T06:15:21;2.20;99.90
11446;DHT22;5779;64.178;15.432;2023-02-28T06:18:08;2.20;99.90
11446;DHT22;5779;64.178;15.432;2023-02-28T06:20:55;2.20;99.90
11446;DHT22;5779;64.178;15.432;2023-02-28T06:23:43;2.10;99.90
11446;DHT22;5779;64.178;15.432;2023-02-28T06:26:30;2.20;99.90
11446;DHT22;5779;64.178;15.432;2023-02-28T06:29:19;2.20;99.90
11446;DHT22;5779;64.178;15.432;2023-02-28T06:32:06;2.20;99.90
11446;DHT22;5779;64.178;15.432;2023-02-28T06:34:53;2.20;99.90
11446;DHT22;5779;64.178;15.432;2023-02-28T06:37:39;2.20;99.90
11446;DHT22;5779;64.178;15.432;2023-02-28T06:40:27;2.20;99.90
11446;DHT22;5779;64.178;15.432;2023-02-28T06:43:16;2.10;99.90
11446;DHT22;5779;64.178;15.432;2023-02-28T06:46:07;2.10;99.90
11446;DHT22;5779;64.178;15.432;2023-02-28T06:48:55;2.10;99.90
11446;DHT22;5779;64.178;15.432;2023-02-28T06:51:43;2.10;99.90
11446;DHT22;5779;64.178;15.432;2023-02-28T06:54:31;2.10;99.90
11446;DHT22;5779;64.178;15.432;2023-02-28T06:57:17;2.10;99.90
11446;DHT22;5779;64.178;15.432;2023-02-28T07:00:07;2.10;99.90
11446;DHT22;5779;64.178;15.432;2023-02-28T07:02:56;2.10;99.90
11446;DHT22;5779;64.178;15.432;2023-02-28T07:05:43;2.00;99.90
11446;DHT22;5779;64.178;15.432;2023-02-28T07:08:30;2.00;99.90
11446;DHT22;5779;64.178;15.432;2023-02-28T07:11:18;1.90;99.90
11446;DHT22;5779;64.178;15.432;2023-02-28T07:14:04;1.90;99.90
11446;DHT22;5779;64.178;15.432;2023-02-28T07:16:51;1.90;99.90
11446;DHT22;5779;64.178;15.432;2023-02-28T07:19:40;1.90;99.90
11446;DHT22;5779;64.178;15.432;2023-02-28T07:22:26;1.80;99.90
11446;DHT22;5779;64.178;15.432;2023-02-28T07:25:14;1.80;99.90
11446;DHT22;5779;64.178;15.432;2023-02-28T07:28:01;1.90;99.90
11446;DHT22;5779;64.178;15.432;2023-02-28T07:30:48;1.90;99.90
11446;DHT22;5779;64.178;15.432;2023-02-28T07:33:34;1.90;99.90
11446;DHT22;5779;64.178;15.432;2023-02-28T07:36:22;1.90;99.90
11446;DHT22;5779;64.178;15.432;2023-02-28T07:39:09;2.00;99.90
11446;DHT22;5779;64.178;15.432;2023-02-28T07:41:56;2.00;99.90
11446;DHT22;5779;64.178;15.432;2023-02-28T07:44:44;2.00;99.90
11446;DHT22;5779;64.178;15.432;2023-02-28T07:47:32;2.10;99.90
11446;DHT22;5779;64.178;15.432;2023-02-28T07:50:19;2.10;99.90
11446;DHT22;5779;64.178;15.432;2023-02-28T07:53:07;2.10;99.90
11446;DHT22;5779;64.178;15.432;2023-02-28T07:55:55;2.10;99.90
11446;DHT22;5779;64.178;15.432;2023-02-28T07:58:42;2.10;99.90
11446;DHT22;5779;64.178;15.432;2023-02-28T08:01:29;2.20;99.90
11446;DHT22;5779;64.178;15.432;2023-02-28T08:04:16;2.20;99.90
11446;DHT22;5779;64.178;15.432;2023-02-28T08:07:03;2.20;99.90
11446;DHT22;5779;64.178;15.432;2023-02-28T08:09:51;2.20;99.90
11446;DHT22;5779;64.178;15.432;2023-02-28T08:12:38;2.20;99.90
11446;DHT22;5779;64.178;15.432;2023-02-28T08:15:25;2.10;99.90
11446;DHT22;5779;64.178;15.432;2023-02-28T08:18:12;2.10;99.90
11446;DHT22;5779;64.178;15.432;2023-02-28T08:20:58;2.10;99.90
11446;DHT22;5779;64.178;15.432;2023-02-28T08:23:47;2.20;99.90
11446;DHT22;5779;64.178;15.432;2023-02-28T08:26:35;2.20;99.90
11446;DHT22;5779;64.178;15.432;2023-02-28T08:29:22;2.30;99.90
11446;DHT22;5779;64.178;15.432;2023-02-28T08:32:09;2.20;99.90
11446;DHT22;5779;64.178;15.432;2023-02-28T08:34:56;2.10;99.90
11446;DHT22;5779;64.178;15.432;2023-02-28T08:37:43;2.20;99.90
11446;DHT22;5779;64.178;15.432;2023-02-28T08:40:30;2.10;99.90
11446;DHT22;5779;64.178;15.432;2023-02-28T08:43:19;2.10;99.90
11446;DHT22;5779;64.178;15.432;2023-02-28T08:46:06;2.10;99.90
11446;DHT22;5779;64.178;15.432;2023-02-28T08:48:53;2.00;99.90
11446;DHT22;5779;64.178;15.432;2023-02-28T08:51:41;2.00;99.90
11446;DHT22;5779;64.178;15.432;2023-02-28T08:54:28;2.00;99.90
11446;DHT22;5779;64.178;15.432;2023-02-28T08:57:16;2.00;99.90
11446;DHT22;5779;64.178;15.432;2023-02-28T09:00:06;2.00;99.90
11446;DHT22;5779;64.178;15.432;2023-02-28T09:02:53;2.00;99.90
11446;DHT22;5779;64.178;15.432;2023-02-28T09:05:40;2.00;99.90
11446;DHT22;5779;64.178;15.432;2023-02-28T09:08:30;2.00;99.90
11446;DHT22;5779;64.178;15.432;2023-02-28T09:11:17;2.00;99.90
11446;DHT22;5779;64.178;15.432;2023-02-28T09:14:04;2.00;99.90
11446;DHT22;5779;64.178;15.432;2023-02-28T09:16:53;2.10;99.90
11446;DHT22;5779;64.178;15.432;2023-02-28T09:19:39;2.10;99.90
11446;DHT22;5779;64.178;15.432;2023-02-28T09:22:26;2.10;99.90
11446;DHT22;5779;64.178;15.432;2023-02-28T09:25:13;2.10;99.90
11446;DHT22;5779;64.178;15.432;2023-02-28T09:28:00;2.10;99.90
11446;DHT22;5779;64.178;15.432;2023-02-28T09:30:49;2.10;99.90
11446;DHT22;5779;64.178;15.432;2023-02-28T09:33:37;2.10;99.90
11446;DHT22;5779;64.178;15.432;2023-02-28T09:36:27;2.00;99.90
11446;DHT22;5779;64.178;15.432;2023-02-28T09:39:15;2.00;99.90
11446;DHT22;5779;64.178;15.432;2023-02-28T09:42:02;2.10;99.90
11446;DHT22;5779;64.178;15.432;2023-02-28T09:44:50;2.00;99.90
11446;DHT22;5779;64.178;15.432;2023-02-28T09:47:40;2.00;99.90
11446;DHT22;5779;64.178;15.432;2023-02-28T09:50:35;2.10;99.90
11446;DHT22;5779;64.178;15.432;2023-02-28T09:53:26;2.10;99.90
11446;DHT22;5779;64.178;15.432;2023-02-28T09:56:21;2.10;99.90
11446;DHT22;5779;64.178;15.432;2023-02-28T09:59:17;2.10;99.90
11446;DHT22;5779;64.178;15.432;2023-02-28T10:02:18;2.20;99.90
11446;DHT22;5779;64.178;15.432;2023-02-28T10:05:09;2.10;99.90
11446;DHT22;5779;64.178;15.432;2023-02-28T10:08:05;2.10;99.90
11446;DHT22;5779;64.178;15.432;2023-02-28T10:10:57;2.10;99.90
11446;DHT22;5779;64.178;15.432;2023-02-28T10:13:53;2.10;99.90
11446;DHT22;5779;64.178;15.432;2023-02-28T10:16:45;2.10;99.90
11446;DHT22;5779;64.178;15.432;2023-02-28T10:19:42;2.10;99.90
11446;DHT22;5779;64.178;15.432;2023-02-28T10:22:35;2.10;99.90
11446;DHT22;5779;64.178;15.432;2023-02-28T10:25:28;2.20;99.90
11446;DHT22;5779;64.178;15.432;2023-02-28T10:28:16;2.20;99.90
11446;DHT22;5779;64.178;15.432;2023-02-28T10:31:04;2.20;99.90
11446;DHT22;5779;64.178;15.432;2023-02-28T10:33:51;2.20;99.90
11446;DHT22;5779;64.178;15.432;2023-02-28T10:36:38;2.30;99.90
11446;DHT22;5779;64.178;15.432;2023-02-28T10:39:36;2.30;99.90
11446;DHT22;5779;64.178;15.432;2023-02-28T10:42:27;2.30;99.90
11446;DHT22;5779;64.178;15.432;2023-02-28T10:45:16;2.30;99.90
11446;DHT22;5779;64.178;15.432;2023-02-28T10:48:06;2.20;99.90
11446;DHT22;5779;64.178;15.432;2023-02-28T10:51:13;2.10;99.90
11446;DHT22;5779;64.178;15.432;2023-02-28T10:54:00;2.10;99.90
11446;DHT22;5779;64.178;15.432;2023-02-28T10:57:06;2.10;99.90
11446;DHT22;5779;64.178;15.432;2023-02-28T11:00:11;2.10;99.90
11446;DHT22;5779;64.178;15.432;2023-02-28T11:02:59;2.20;99.90
11446;DHT22;5779;64.178;15.432;2023-02-28T11:05:46;2.10;99.90
11446;DHT22;5779;64.178;15.432;2023-02-28T11:08:34;2.20;99.90
11446;DHT22;5779;64.178;15.432;2023-02-28T11:11:45;2.20;99.90
11446;DHT22;5779;64.178;15.432;2023-02-28T11:14:38;2.20;99.90
11446;DHT22;5779;64.178;15.432;2023-02-28T11:17:32;2.10;99.90
11446;DHT22;5779;64.178;15.432;2023-02-28T11:20:22;2.10;99.90
11446;DHT22;5779;64.178;15.432;2023-02-28T11:23:12;2.20;99.90
11446;DHT22;5779;64.178;15.432;2023-02-28T11:26:02;2.20;99.90
11446;DHT22;5779;64.178;15.432;2023-02-28T11:29:05;2.20;99.90
11446;DHT22;5779;64.178;15.432;2023-02-28T11:32:13;2.20;99.90
11446;DHT22;5779;64.178;15.432;2023-02-28T11:35:14;2.20;99.90
11446;DHT22;5779;64.178;15.432;2023-02-28T11:38:07;2.20;99.90
11446;DHT22;5779;64.178;15.432;2023-02-28T11:41:10;2.20;99.90
11446;DHT22;5779;64.178;15.432;2023-02-28T11:44:24;2.20;99.90
11446;DHT22;5779;64.178;15.432;2023-02-28T11:47:19;2.20;99.90
11446;DHT22;5779;64.178;15.432;2023-02-28T11:50:20;2.10;99.90
11446;DHT22;5779;64.178;15.432;2023-02-28T11:53:16;2.10;99.90
11446;DHT22;5779;64.178;15.432;2023-02-28T11:56:08;2.10;99.90
11446;DHT22;5779;64.178;15.432;2023-02-28T11:59:03;2.00;99.90
11446;DHT22;5779;64.178;15.432;2023-02-28T12:02:16;1.90;99.90
11446;DHT22;5779;64.178;15.432;2023-02-28T12:05:20;1.90;99.90
11446;DHT22;5779;64.178;15.432;2023-02-28T12:08:23;1.90;99.90
11446;DHT22;5779;64.178;15.432;2023-02-28T12:11:19;2.00;99.90
11446;DHT22;5779;64.178;15.432;2023-02-28T12:14:33;2.00;99.90
11446;DHT22;5779;64.178;15.432;2023-02-28T12:17:42;2.00;99.90
11446;DHT22;5779;64.178;15.432;2023-02-28T12:20:37;1.90;99.90
11446;DHT22;5779;64.178;15.432;2023-02-28T12:23:47;1.90;99.90
11446;DHT22;5779;64.178;15.432;2023-02-28T12:26:39;1.90;99.90
11446;DHT22;5779;64.178;15.432;2023-02-28T12:29:28;1.90;99.90
11446;DHT22;5779;64.178;15.432;2023-02-28T12:32:21;2.00;99.90
11446;DHT22;5779;64.178;15.432;2023-02-28T12:35:13;2.10;99.90
11446;DHT22;5779;64.178;15.432;2023-02-28T12:38:08;2.10;99.90
11446;DHT22;5779;64.178;15.432;2023-02-28T12:41:00;2.20;99.90
11446;DHT22;5779;64.178;15.432;2023-02-28T12:43:51;2.20;99.90
11446;DHT22;5779;64.178;15.432;2023-02-28T12:46:42;2.20;99.90
11446;DHT22;5779;64.178;15.432;2023-02-28T12:49:33;2.30;99.90
11446;DHT22;5779;64.178;15.432;2023-02-28T12:52:25;2.20;99.90
11446;DHT22;5779;64.178;15.432;2023-02-28T12:55:23;2.20;99.90
11446;DHT22;5779;64.178;15.432;2023-02-28T12:58:16;2.20;99.90
11446;DHT22;5779;64.178;15.432;2023-02-28T13:08:19;2.20;99.90
11446;DHT22;5779;64.178;15.432;2023-02-28T13:11:24;2.20;99.90
11446;DHT22;5779;64.178;15.432;2023-02-28T13:14:20;2.20;99.90
11446;DHT22;5779;64.178;15.432;2023-02-28T13:17:14;2.30;99.90
11446;DHT22;5779;64.178;15.432;2023-02-28T13:20:14;2.30;99.90
11446;DHT22;5779;64.178;15.432;2023-02-28T13:23:01;2.30;99.90
11446;DHT22;5779;64.178;15.432;2023-02-28T13:25:52;2.20;99.90
11446;DHT22;5779;64.178;15.432;2023-02-28T13:29:24;2.20;99.90
11446;DHT22;5779;64.178;15.432;2023-02-28T13:32:32;2.10;99.90
11446;DHT22;5779;64.178;15.432;2023-02-28T13:35:45;2.10;99.90
11446;DHT22;5779;64.178;15.432;2023-02-28T13:38:35;2.10;99.90
11446;DHT22;5779;64.178;15.432;2023-02-28T13:41:55;2.10;99.90
11446;DHT22;5779;64.178;15.432;2023-02-28T13:48:04;2.00;99.90
11446;DHT22;5779;64.178;15.432;2023-02-28T13:50:52;2.00;99.90
11446;DHT22;5779;64.178;15.432;2023-02-28T13:53:54;2.00;99.90
11446;DHT22;5779;64.178;15.432;2023-02-28T13:56:47;2.00;99.90
11446;DHT22;5779;64.178;15.432;2023-02-28T13:59:46;2.00;99.90
11446;DHT22;5779;64.178;15.432;2023-02-28T14:03:03;2.00;99.90
11446;DHT22;5779;64.178;15.432;2023-02-28T14:09:21;2.00;99.90
11446;DHT22;5779;64.178;15.432;2023-02-28T14:15:55;2.00;99.90
11446;DHT22;5779;64.178;15.432;2023-02-28T14:18:49;1.90;99.90
11446;DHT22;5779;64.178;15.432;2023-02-28T14:21:39;1.90;99.90
11446;DHT22;5779;64.178;15.432;2023-02-28T14:25:01;1.90;99.90
11446;DHT22;5779;64.178;15.432;2023-02-28T14:27:58;1.80;99.90
11446;DHT22;5779;64.178;15.432;2023-02-28T14:30:58;1.80;99.90
11446;DHT22;5779;64.178;15.432;2023-02-28T14:34:04;1.80;99.90
11446;DHT22;5779;64.178;15.432;2023-02-28T14:36:53;1.80;99.90
11446;DHT22;5779;64.178;15.432;2023-02-28T14:39:43;1.80;99.90
11446;DHT22;5779;64.178;15.432;2023-02-28T14:42:32;1.70;99.90
11446;DHT22;5779;64.178;15.432;2023-02-28T14:45:21;1.70;99.90
11446;DHT22;5779;64.178;15.432;2023-02-28T14:48:10;1.80;99.90
11446;DHT22;5779;64.178;15.432;2023-02-28T14:50:57;1.80;99.90
11446;DHT22;5779;64.178;15.432;2023-02-28T14:53:49;1.80;99.90
11446;DHT22;5779;64.178;15.432;2023-02-28T14:56:39;1.80;99.90
11446;DHT22;5779;64.178;15.432;2023-02-28T14:59:28;1.80;99.90
11446;DHT22;5779;64.178;15.432;2023-02-28T15:02:21;1.80;99.90
11446;DHT22;5779;64.178;15.432;2023-02-28T15:05:24;1.70;99.90
11446;DHT22;5779;64.178;15.432;2023-02-28T15:08:12;1.70;99.90
11446;DHT22;5779;64.178;15.432;2023-02-28T15:11:02;1.70;99.90
11446;DHT22;5779;64.178;15.432;2023-02-28T15:13:54;1.70;99.90
11446;DHT22;5779;64.178;15.432;2023-02-28T15:16:44;1.70;99.90
11446;DHT22;5779;64.178;15.432;2023-02-28T15:19:35;1.80;99.90
11446;DHT22;5779;64.178;15.432;2023-02-28T15:22:28;1.70;99.90
11446;DHT22;5779;64.178;15.432;2023-02-28T15:25:19;1.80;99.90
11446;DHT22;5779;64.178;15.432;2023-02-28T15:28:13;1.70;99.90
11446;DHT22;5779;64.178;15.432;2023-02-28T15:31:16;1.70;99.90
11446;DHT22;5779;64.178;15.432;2023-02-28T15:34:06;1.60;99.90
11446;DHT22;5779;64.178;15.432;2023-02-28T15:36:53;1.60;99.90
11446;DHT22;5779;64.178;15.432;2023-02-28T15:39:42;1.60;99.90
11446;DHT22;5779;64.178;15.432;2023-02-28T15:42:31;1.60;99.90
11446;DHT22;5779;64.178;15.432;2023-02-28T15:45:28;1.60;99.90
11446;DHT22;5779;64.178;15.432;2023-02-28T15:48:22;1.40;99.90
11446;DHT22;5779;64.178;15.432;2023-02-28T15:51:16;1.50;99.90
11446;DHT22;5779;64.178;15.432;2023-02-28T15:54:06;1.50;99.90
11446;DHT22;5779;64.178;15.432;2023-02-28T15:56:55;1.50;99.90
11446;DHT22;5779;64.178;15.432;2023-02-28T19:06:47;1.20;99.90
11446;DHT22;5779;64.178;15.432;2023-02-28T19:09:40;1.50;99.90
11446;DHT22;5779;64.178;15.432;2023-02-28T19:12:27;1.50;99.90
11446;DHT22;5779;64.178;15.432;2023-02-28T19:15:14;1.60;99.90
11446;DHT22;5779;64.178;15.432;2023-02-28T19:18:07;1.60;99.90
11446;DHT22;5779;64.178;15.432;2023-02-28T19:21:00;1.60;99.90
11446;DHT22;5779;64.178;15.432;2023-02-28T19:23:55;1.50;99.90
11446;DHT22;5779;64.178;15.432;2023-02-28T19:26:42;1.60;99.90
11446;DHT22;5779;64.178;15.432;2023-02-28T19:29:29;1.50;99.90
11446;DHT22;5779;64.178;15.432;2023-02-28T19:32:15;1.50;99.90
11446;DHT22;5779;64.178;15.432;2023-02-28T19:35:03;1.60;99.90
11446;DHT22;5779;64.178;15.432;2023-02-28T19:37:50;1.60;99.90
11446;DHT22;5779;64.178;15.432;2023-02-28T19:40:39;1.60;99.90
11446;DHT22;5779;64.178;15.432;2023-02-28T19:43:25;1.60;99.90
11446;DHT22;5779;64.178;15.432;2023-02-28T19:46:12;1.70;99.90
11446;DHT22;5779;64.178;15.432;2023-02-28T19:48:59;1.70;99.90
11446;DHT22;5779;64.178;15.432;2023-02-28T19:51:46;1.70;99.90
11446;DHT22;5779;64.178;15.432;2023-02-28T19:54:33;1.60;99.90
11446;DHT22;5779;64.178;15.432;2023-02-28T19:57:21;1.60;99.90
11446;DHT22;5779;64.178;15.432;2023-02-28T20:00:09;1.60;99.90
11446;DHT22;5779;64.178;15.432;2023-02-28T20:02:57;1.60;99.90
11446;DHT22;5779;64.178;15.432;2023-02-28T20:05:44;1.60;99.90
11446;DHT22;5779;64.178;15.432;2023-02-28T20:08:30;1.60;99.90
11446;DHT22;5779;64.178;15.432;2023-02-28T20:11:17;1.60;99.90
11446;DHT22;5779;64.178;15.432;2023-02-28T20:14:06;1.60;99.90
11446;DHT22;5779;64.178;15.432;2023-02-28T20:16:53;1.60;99.90
11446;DHT22;5779;64.178;15.432;2023-02-28T20:19:40;1.60;99.90
11446;DHT22;5779;64.178;15.432;2023-02-28T20:22:27;1.60;99.90
11446;DHT22;5779;64.178;15.432;2023-02-28T20:25:14;1.70;99.90
11446;DHT22;5779;64.178;15.432;2023-02-28T20:28:01;1.70;99.90
11446;DHT22;5779;64.178;15.432;2023-02-28T20:30:49;1.70;99.90
11446;DHT22;5779;64.178;15.432;2023-02-28T20:33:36;1.80;99.90
11446;DHT22;5779;64.178;15.432;2023-02-28T20:36:23;1.80;99.90
11446;DHT22;5779;64.178;15.432;2023-02-28T20:39:10;1.90;99.90
11446;DHT22;5779;64.178;15.432;2023-02-28T20:41:57;1.90;99.90
11446;DHT22;5779;64.178;15.432;2023-02-28T20:44:44;1.90;99.90
11446;DHT22;5779;64.178;15.432;2023-02-28T20:47:32;2.00;99.90
11446;DHT22;5779;64.178;15.432;2023-02-28T20:50:19;2.00;99.90
11446;DHT22;5779;64.178;15.432;2023-02-28T20:53:06;1.90;99.90
11446;DHT22;5779;64.178;15.432;2023-02-28T20:55:54;1.90;99.90
11446;DHT22;5779;64.178;15.432;2023-02-28T20:58:42;1.90;99.90
11446;DHT22;5779;64.178;15.432;2023-02-28T21:01:30;2.00;99.90
11446;DHT22;5779;64.178;15.432;2023-02-28T21:04:19;2.00;99.90
11446;DHT22;5779;64.178;15.432;2023-02-28T21:07:06;2.00;99.90
11446;DHT22;5779;64.178;15.432;2023-02-28T21:09:53;2.00;99.90
11446;DHT22;5779;64.178;15.432;2023-02-28T21:12:40;2.00;99.90
11446;DHT22;5779;64.178;15.432;2023-02-28T21:15:27;2.00;99.90
11446;DHT22;5779;64.178;15.432;2023-02-28T21:18:14;2.00;99.90
11446;DHT22;5779;64.178;15.432;2023-02-28T21:21:03;2.00;99.90
11446;DHT22;5779;64.178;15.432;2023-02-28T21:23:51;2.00;99.90
11446;DHT22;5779;64.178;15.432;2023-02-28T21:26:38;2.00;99.90
11446;DHT22;5779;64.178;15.432;2023-02-28T21:29:25;2.00;99.90
11446;DHT22;5779;64.178;15.432;2023-02-28T21:32:12;2.10;99.90
11446;DHT22;5779;64.178;15.432;2023-02-28T21:34:59;2.10;99.90
11446;DHT22;5779;64.178;15.432;2023-02-28T21:37:48;2.10;99.90
11446;DHT22;5779;64.178;15.432;2023-02-28T21:40:35;2.20;99.90
11446;DHT22;5779;64.178;15.432;2023-02-28T21:43:22;2.20;99.90